Nearby METAR Reports

 

KCPC - Whiteville, North Carolina, USA
Distance from station: NNE 17mi, 28km
Updated: 06/15/2024 11:25pm
Clear
Clear
 Wind from E
Wind: E 3 mph , 6 km/h
Temperature: 75°F , 24°C
Dew Point: 72°F , 22°C
Humidity: 89%
Barometer: 30.09 inHg , 1019 hPa
Clouds: Clear
Visibility: 7 miles , 11 km
2024/06/16 03:25 KCPC 160325Z AUTO 08003KT 7SM CLR 24/22 A3009 RMK AO2 T02440215
KCRE - North Myrtle Bea, South Carolina, USA
Distance from station: SSE 19mi, 31km
Updated: 06/15/2024 10:53pm
Clear
Clear
 Wind from E
Wind: E 7 mph , 11 km/h
Temperature: 81°F , 27°C
Heat Index: 86°F , 30°C
Dew Point: 73°F , 23°C
Humidity: 79%
Barometer: 30.04 inHg , 1017.3 hPa
Clouds: Clear
Visibility: 10 miles , 16 km
2024/06/16 02:53 KCRE 160253Z AUTO 08006KT 10SM CLR 27/23 A3004 RMK AO1 SLP172 T02670228 53015
 
KHYW - Conway-Horry Cty, South Carolina, USA
Distance from station: SW 22mi, 35km
Updated: 06/15/2024 11:35pm
Clear
Clear
 Wind from calm
Wind: Calm
Temperature: 72°F , 22°C
Dew Point: 72°F , 22°C
Humidity: 100%
Barometer: 30.06 inHg , 1017.9 hPa
Clouds: Clear
Visibility: 10 miles , 16 km
2024/06/16 03:35 KHYW 160335Z AUTO 00000KT 10SM CLR 22/22 A3006 RMK AO2
KMAO - Marion, South Carolina, USA
Distance from station: WNW 28mi, 45km
Updated: 06/15/2024 11:35pm
Partly cloudy
Partly cloudy
 Wind from E
Wind: E 5 mph , 7 km/h
Temperature: 73°F , 23°C
Dew Point: 73°F , 23°C
Humidity: 100%
Barometer: 30.06 inHg , 1017.9 hPa
Clouds: Partly cloudy
Visibility: 10 miles , 16 km
Cloud details: Partly cloudy 6000 ft
2024/06/16 03:35 KMAO 160335Z AUTO 08004KT 10SM SCT060 23/23 A3006 RMK AO2 LTG DSNT W
 
KMYR - Myrtle Beach, South Carolina, USA
Distance from station: S 28mi, 45km
Updated: 06/15/2024 10:56pm
Few Clouds
Few Clouds
 Wind from ESE
Wind: ESE 6 mph , 9 km/h
Temperature: 81°F , 27°C
Heat Index: 87°F , 31°C
Dew Point: 75°F , 24°C
Humidity: 84%
Barometer: 30.04 inHg , 1017.3 hPa
Clouds: Few Clouds
Visibility: 10 miles , 16 km
Cloud details: Few Clouds 11000 ft
2024/06/16 02:56 KMYR 160256Z AUTO 11005KT 10SM FEW110 27/24 A3004 RMK AO2 SLP173 T02670244 53011
KLBT - Lumberton, North Carolina, USA
Distance from station: NNW 39mi, 62km
Updated: 06/15/2024 10:56pm
Few Clouds
Few Clouds
 Wind from ESE
Wind: ESE 8 mph , 13 km/h
Temperature: 81°F , 27°C
Heat Index: 85°F , 29°C
Dew Point: 72°F , 22°C
Humidity: 74%
Barometer: 30.05 inHg , 1017.6 hPa
Clouds: Few Clouds
Visibility: 10 miles , 16 km
Cloud details: Few Clouds 5000 ft
2024/06/16 02:56 KLBT 160256Z AUTO 12007KT 10SM FEW050 27/22 A3005 RMK AO2 SLP174 T02670217 53027
 
KSUT - Southport, North Carolina, USA
Distance from station: E 46mi, 74km
Updated: 06/15/2024 11:30pm
Clear
Clear
 Wind from ENE
Wind: ENE 3 mph , 6 km/h
Temperature: 77°F , 25°C
Dew Point: 72°F , 22°C
Humidity: 83%
Barometer: 30.08 inHg , 1018.6 hPa
Clouds: Clear
Visibility: 10 miles , 16 km
2024/06/16 03:30 KSUT 160330Z AUTO 06003KT 10SM CLR 25/22 A3008 RMK AO2 T02500216
KFLO - Florence, South Carolina, USA
Distance from station: W 50mi, 81km
Updated: 06/15/2024 10:53pm
Clear
Clear
 Wind from calm
Wind: Calm
Temperature: 77°F , 25°C
Dew Point: 70°F , 21°C
Humidity: 79%
Barometer: 30.04 inHg , 1017.3 hPa
Clouds: Clear
Visibility: 10 miles , 16 km
2024/06/16 02:53 KFLO 160253Z AUTO 00000KT 10SM CLR 25/21 A3004 RMK AO2 SLP170 T02500211 53019